createdAt,value
2019-02-24T00:02:40.427Z,9.93
2019-02-24T00:05:47.773Z,10.23
2019-02-24T00:08:54.828Z,9.90
2019-02-24T00:11:59.110Z,10.57
2019-02-24T00:15:03.376Z,10.53
2019-02-24T00:18:07.735Z,9.97
2019-02-24T00:21:12.101Z,10.27
2019-02-24T00:24:16.382Z,11.27
2019-02-24T00:27:20.650Z,11.77
2019-02-24T00:30:25.176Z,11.10
2019-02-24T00:33:29.558Z,11.30
2019-02-24T00:36:33.804Z,11.53
2019-02-24T00:39:38.316Z,11.57
2019-02-24T00:42:42.589Z,11.93
2019-02-24T00:45:46.939Z,11.37
2019-02-24T00:48:51.205Z,11.70
2019-02-24T00:51:55.506Z,10.87
2019-02-24T00:54:59.892Z,11.63
2019-02-24T00:58:04.181Z,11.27
2019-02-24T01:01:08.464Z,10.90
2019-02-24T01:04:12.746Z,11.77
2019-02-24T01:07:17.038Z,12.07
2019-02-24T01:10:21.499Z,11.07
2019-02-24T01:13:25.769Z,11.93
2019-02-24T01:16:30.061Z,10.97
2019-02-24T01:19:34.402Z,11.80
2019-02-24T01:22:38.679Z,11.27
2019-02-24T01:25:42.961Z,11.07
2019-02-24T01:28:47.243Z,11.20
2019-02-24T01:31:51.568Z,11.50
2019-02-24T01:34:55.824Z,12.40
2019-02-24T01:38:00.117Z,11.67
2019-02-24T01:41:04.406Z,12.60
2019-02-24T01:44:08.701Z,11.90
2019-02-24T01:47:12.975Z,11.67
2019-02-24T01:50:17.342Z,11.93
2019-02-24T01:53:21.615Z,11.50
2019-02-24T01:56:25.909Z,11.57
2019-02-24T01:59:30.213Z,11.43
2019-02-24T02:02:34.532Z,12.83
2019-02-24T02:05:38.958Z,11.87
2019-02-24T02:08:43.377Z,11.47
2019-02-24T02:11:49.383Z,11.80
2019-02-24T02:14:53.830Z,12.10
2019-02-24T02:17:58.333Z,12.43
2019-02-24T02:21:02.605Z,12.27
2019-02-24T02:24:06.895Z,11.90
2019-02-24T02:27:11.203Z,12.77
2019-02-24T02:30:15.580Z,11.90
2019-02-24T02:33:19.901Z,11.10
2019-02-24T02:36:24.235Z,12.67
2019-02-24T02:39:28.545Z,12.43
2019-02-24T02:42:33.279Z,13.30
2019-02-24T02:45:37.614Z,12.50
2019-02-24T02:48:41.899Z,12.73
2019-02-24T02:51:46.186Z,13.17
2019-02-24T02:54:50.555Z,13.00
2019-02-24T02:57:54.854Z,11.33
2019-02-24T03:00:59.151Z,11.53
2019-02-24T03:04:03.434Z,11.87
2019-02-24T03:07:21.945Z,12.40
2019-02-24T03:10:26.327Z,12.33
2019-02-24T03:13:30.634Z,12.13
2019-02-24T03:16:34.952Z,11.93
2019-02-24T03:19:39.232Z,12.07
2019-02-24T03:22:43.527Z,11.40
2019-02-24T03:25:47.868Z,11.33
2019-02-24T03:28:52.168Z,11.80
2019-02-24T03:31:56.470Z,11.10
2019-02-24T03:35:00.792Z,11.37
2019-02-24T03:38:07.514Z,11.93
2019-02-24T03:41:11.793Z,11.87
2019-02-24T03:44:16.064Z,11.40
2019-02-24T03:47:20.452Z,12.20
2019-02-24T03:50:24.788Z,12.30
2019-02-24T03:53:29.152Z,12.03
2019-02-24T03:56:33.532Z,11.97
2019-02-24T03:59:38.196Z,12.10
2019-02-24T04:02:42.484Z,11.57
2019-02-24T04:05:46.774Z,12.83
2019-02-24T04:08:51.164Z,12.37
2019-02-24T04:11:55.484Z,12.67
2019-02-24T04:14:59.891Z,12.47
2019-02-24T04:18:04.185Z,11.93
2019-02-24T04:21:08.764Z,12.00
2019-02-24T04:24:13.261Z,12.57
2019-02-24T04:27:17.589Z,12.70
2019-02-24T04:30:21.986Z,11.50
2019-02-24T04:33:29.098Z,11.77
2019-02-24T04:36:33.542Z,12.73
2019-02-24T04:39:37.855Z,12.67
2019-02-24T04:42:42.168Z,12.73
2019-02-24T04:45:46.746Z,13.27
2019-02-24T04:48:52.245Z,12.83
2019-02-24T04:51:56.577Z,12.70
2019-02-24T04:55:00.907Z,12.90
2019-02-24T04:58:05.291Z,12.43
2019-02-24T05:01:09.598Z,13.13
2019-02-24T05:04:13.951Z,13.07
2019-02-24T05:07:18.307Z,13.30
2019-02-24T05:10:22.668Z,13.33
2019-02-24T05:13:29.017Z,12.97
2019-02-24T05:16:33.513Z,13.93
2019-02-24T05:19:38.027Z,14.10
2019-02-24T05:22:42.323Z,14.23
2019-02-24T05:25:46.617Z,13.37
2019-02-24T05:28:50.967Z,14.13
2019-02-24T05:31:55.477Z,13.73
2019-02-24T05:35:03.047Z,13.70
2019-02-24T05:38:07.519Z,12.70
2019-02-24T05:41:11.892Z,13.10
2019-02-24T05:44:16.208Z,13.97
2019-02-24T05:47:20.554Z,14.10
2019-02-24T05:50:27.926Z,13.47
2019-02-24T05:53:32.265Z,13.93
2019-02-24T05:56:36.619Z,13.53
2019-02-24T05:59:40.968Z,14.03
2019-02-24T06:02:45.284Z,14.63
2019-02-24T06:05:49.612Z,13.97
2019-02-24T06:08:55.895Z,13.87
2019-02-24T06:11:59.947Z,13.47
2019-02-24T06:15:04.546Z,13.43
2019-02-24T06:18:08.826Z,13.67
2019-02-24T06:21:13.133Z,14.10
2019-02-24T06:24:17.472Z,14.30
2019-02-24T06:27:21.772Z,13.03
2019-02-24T06:30:26.128Z,13.50
2019-02-24T06:33:30.556Z,14.80
2019-02-24T06:36:34.902Z,14.70
2019-02-24T06:39:39.228Z,13.80
2019-02-24T06:42:43.981Z,15.23
2019-02-24T06:45:50.370Z,14.93
2019-02-24T06:48:54.672Z,14.43
2019-02-24T06:51:59.027Z,13.67
2019-02-24T06:55:03.492Z,14.60
2019-02-24T06:58:07.786Z,14.23
2019-02-24T07:01:12.136Z,15.07
2019-02-24T07:04:16.551Z,15.03
2019-02-24T07:07:20.875Z,14.97
2019-02-24T07:10:28.201Z,14.50
2019-02-24T07:13:32.521Z,14.87
2019-02-24T07:16:37.072Z,15.10
2019-02-24T07:19:41.391Z,15.17
2019-02-24T07:22:45.692Z,14.87
2019-02-24T07:25:50.013Z,14.77
2019-02-24T07:28:54.365Z,15.37
2019-02-24T07:31:58.917Z,14.97
2019-02-24T07:35:03.201Z,15.80
2019-02-24T07:38:07.477Z,13.80
2019-02-24T07:41:14.807Z,14.17
2019-02-24T07:44:21.899Z,13.97
2019-02-24T07:47:26.203Z,15.13
2019-02-24T07:50:30.486Z,13.50
2019-02-24T07:53:34.914Z,14.57
2019-02-24T07:56:39.309Z,14.87
2019-02-24T07:59:43.778Z,15.37
2019-02-24T08:02:48.103Z,15.40
2019-02-24T08:05:53.887Z,14.87
2019-02-24T08:08:58.207Z,14.70
2019-02-24T08:12:02.489Z,17.13
2019-02-24T08:15:07.422Z,16.43
2019-02-24T08:18:11.969Z,16.37
2019-02-24T08:21:16.288Z,15.63
2019-02-24T08:24:20.587Z,16.53
2019-02-24T08:27:24.882Z,15.40
2019-02-24T08:30:29.299Z,16.43
2019-02-24T08:33:33.591Z,16.03
2019-02-24T08:36:37.872Z,15.93
2019-02-24T08:39:42.187Z,15.03
2019-02-24T08:42:46.794Z,14.97
2019-02-24T08:45:51.250Z,15.73
2019-02-24T08:48:55.578Z,15.20
2019-02-24T08:51:59.887Z,16.10
2019-02-24T08:55:04.332Z,15.97
2019-02-24T08:58:08.630Z,15.60
2019-02-24T09:01:12.936Z,16.07
2019-02-24T09:04:17.216Z,14.63
2019-02-24T09:07:24.609Z,15.70
2019-02-24T09:10:28.942Z,15.43
2019-02-24T09:13:35.982Z,16.60
2019-02-24T09:16:40.269Z,16.60
2019-02-24T09:19:44.673Z,16.47
2019-02-24T09:22:48.955Z,17.33
2019-02-24T09:25:53.243Z,17.43
2019-02-24T09:28:57.626Z,16.30
2019-02-24T09:32:01.935Z,17.17
2019-02-24T09:35:07.049Z,17.00
2019-02-24T09:38:11.541Z,17.43
2019-02-24T09:41:18.399Z,18.13
2019-02-24T09:44:22.699Z,16.50
2019-02-24T09:47:26.988Z,20.60
2019-02-24T09:50:31.358Z,19.00
2019-02-24T09:53:35.668Z,17.57
2019-02-24T09:56:39.983Z,17.97
2019-02-24T09:59:44.456Z,17.03
2019-02-24T10:02:48.762Z,16.97
2019-02-24T10:05:53.033Z,17.27
2019-02-24T10:08:57.357Z,16.83
2019-02-24T10:12:01.660Z,17.20
2019-02-24T10:15:06.149Z,18.10
2019-02-24T10:18:10.441Z,17.60
2019-02-24T10:21:14.783Z,17.40
2019-02-24T10:24:19.072Z,17.63
2019-02-24T10:27:23.349Z,18.50
2019-02-24T10:30:32.680Z,18.43
2019-02-24T10:33:38.407Z,17.60
2019-02-24T10:36:42.665Z,18.47
2019-02-24T10:39:47.005Z,17.90
2019-02-24T10:42:51.310Z,18.83
2019-02-24T10:45:55.710Z,18.73
2019-02-24T10:49:03.317Z,19.47
2019-02-24T10:52:06.455Z,18.03
2019-02-24T10:55:11.145Z,19.33
2019-02-24T10:58:15.450Z,17.80
2019-02-24T11:01:29.006Z,17.43
2019-02-24T11:04:25.792Z,18.53
2019-02-24T11:07:30.096Z,17.50
2019-02-24T11:10:37.153Z,18.87
2019-02-24T11:13:41.562Z,17.57
2019-02-24T11:16:46.007Z,18.80
2019-02-24T11:19:50.397Z,18.07
2019-02-24T11:22:57.232Z,19.83
2019-02-24T11:26:01.544Z,19.23
2019-02-24T11:29:05.850Z,19.23
2019-02-24T11:32:10.148Z,18.57
2019-02-24T11:35:14.454Z,19.33
2019-02-24T11:38:18.764Z,20.07
2019-02-24T11:41:23.390Z,18.87
2019-02-24T11:44:27.692Z,20.23
2019-02-24T11:47:32.020Z,20.63
2019-02-24T11:50:36.336Z,20.30
2019-02-24T11:53:40.714Z,21.40
2019-02-24T11:56:45.062Z,20.83
2019-02-24T11:59:49.346Z,20.03
2019-02-24T12:02:53.658Z,21.37
2019-02-24T12:05:58.047Z,20.60
2019-02-24T12:09:05.232Z,22.23
2019-02-24T12:12:08.414Z,20.70
2019-02-24T12:15:12.840Z,22.07
2019-02-24T12:18:17.120Z,21.03
2019-02-24T12:21:21.415Z,22.93
2019-02-24T12:24:25.853Z,22.83
2019-02-24T12:27:31.751Z,22.83
2019-02-24T12:30:36.187Z,22.90
2019-02-24T12:33:40.789Z,21.37
2019-02-24T12:36:45.122Z,20.13
2019-02-24T12:39:49.446Z,20.10
2019-02-24T12:42:54.574Z,21.43
2019-02-24T12:45:59.904Z,20.57
2019-02-24T12:49:04.214Z,21.83
2019-02-24T12:52:08.527Z,20.70
2019-02-24T12:55:13.048Z,19.07
2019-02-24T12:58:17.368Z,20.27
2019-02-24T13:01:21.675Z,21.27
2019-02-24T13:04:25.973Z,20.00
2019-02-24T13:07:30.355Z,21.27
2019-02-24T13:10:34.652Z,21.10
2019-02-24T13:13:38.943Z,20.73
2019-02-24T13:16:43.449Z,20.10
2019-02-24T13:19:47.751Z,19.63
2019-02-24T13:22:52.053Z,19.53
2019-02-24T13:25:56.374Z,19.30
2019-02-24T13:29:00.744Z,20.20
2019-02-24T13:32:14.498Z,19.13
2019-02-24T13:35:11.633Z,18.90
2019-02-24T13:38:15.973Z,18.90
2019-02-24T13:41:20.309Z,19.10
2019-02-24T13:44:24.623Z,18.77
2019-02-24T13:47:29.057Z,18.00
2019-02-24T13:50:33.578Z,19.47
2019-02-24T13:53:38.254Z,19.50
2019-02-24T13:56:42.790Z,20.43
2019-02-24T13:59:47.222Z,21.50
2019-02-24T14:02:51.643Z,20.60
2019-02-24T14:05:57.216Z,21.63
2019-02-24T14:09:06.220Z,20.60
2019-02-24T14:12:10.107Z,20.17
2019-02-24T14:15:14.772Z,19.93
2019-02-24T14:18:19.819Z,21.30
2019-02-24T14:21:25.262Z,21.10
2019-02-24T14:24:29.702Z,20.60
2019-02-24T14:27:35.119Z,21.77
2019-02-24T14:30:39.624Z,21.00
2019-02-24T14:33:44.077Z,20.10
2019-02-24T14:36:54.203Z,20.43
2019-02-24T14:40:00.390Z,21.37
2019-02-24T14:43:05.869Z,20.53
2019-02-24T14:46:13.052Z,21.20
2019-02-24T14:49:17.665Z,22.23
2019-02-24T14:52:23.887Z,19.77
2019-02-24T14:55:29.766Z,20.77
2019-02-24T14:58:35.767Z,19.90
2019-02-24T15:01:42.275Z,20.73
2019-02-24T15:04:46.610Z,19.97
2019-02-24T15:07:51.026Z,19.90
2019-02-24T15:10:55.360Z,20.40
2019-02-24T15:14:00.867Z,20.60
2019-02-24T15:17:05.177Z,20.87
2019-02-24T15:20:11.192Z,21.17
2019-02-24T15:23:15.623Z,21.33
2019-02-24T15:26:19.941Z,20.13
2019-02-24T15:29:24.450Z,20.97
2019-02-24T15:32:28.761Z,19.90
2019-02-24T15:35:33.085Z,19.87
2019-02-24T15:38:37.407Z,20.17
2019-02-24T15:41:41.705Z,20.77
2019-02-24T15:44:46.033Z,21.03
2019-02-24T15:47:50.679Z,19.93
2019-02-24T15:50:54.984Z,20.03
2019-02-24T15:53:59.335Z,20.47
2019-02-24T15:57:03.776Z,20.77
2019-02-24T16:00:10.362Z,20.50
2019-02-24T16:03:14.666Z,21.57
2019-02-24T16:06:19.015Z,20.00
2019-02-24T16:09:23.313Z,21.53
2019-02-24T16:12:27.638Z,21.10
2019-02-24T16:15:31.959Z,21.37
2019-02-24T16:18:36.361Z,20.37
2019-02-24T16:21:40.715Z,21.53
2019-02-24T16:24:45.181Z,21.70
2019-02-24T16:27:49.501Z,22.47
2019-02-24T16:30:53.793Z,21.30
2019-02-24T16:33:58.280Z,21.63
2019-02-24T16:37:02.772Z,22.23
2019-02-24T16:40:09.725Z,21.87
2019-02-24T16:43:14.020Z,22.17
2019-02-24T16:46:18.346Z,22.30
2019-02-24T16:49:22.671Z,23.80
2019-02-24T16:52:27.033Z,23.50
2019-02-24T16:55:31.310Z,22.27
2019-02-24T16:58:35.719Z,22.70
2019-02-24T17:01:40.179Z,22.90
2019-02-24T17:04:44.478Z,24.30
2019-02-24T17:07:49.368Z,23.53
2019-02-24T17:10:54.002Z,24.37
2019-02-24T17:14:00.786Z,23.20
2019-02-24T17:17:05.206Z,23.93
2019-02-24T17:20:11.697Z,24.73
2019-02-24T17:23:16.002Z,23.90
2019-02-24T17:26:20.314Z,24.50
2019-02-24T17:29:24.598Z,25.47
2019-02-24T17:32:29.082Z,23.93
2019-02-24T17:35:33.506Z,25.40
2019-02-24T17:38:38.059Z,24.93
2019-02-24T17:41:42.582Z,24.60
2019-02-24T17:44:47.032Z,24.40
2019-02-24T17:47:51.337Z,26.10
2019-02-24T17:50:55.794Z,25.10
2019-02-24T17:54:00.222Z,25.03
2019-02-24T17:57:04.776Z,25.47
2019-02-24T18:00:16.600Z,23.90
2019-02-24T18:03:21.228Z,25.57
2019-02-24T18:06:25.686Z,24.87
2019-02-24T18:09:31.274Z,25.63
2019-02-24T18:12:35.755Z,25.60
2019-02-24T18:15:40.163Z,26.90
2019-02-24T18:18:44.743Z,28.00
2019-02-24T18:21:49.365Z,27.17
2019-02-24T18:25:02.700Z,28.83
2019-02-24T18:28:00.009Z,27.20
2019-02-24T18:31:04.666Z,27.50
2019-02-24T18:34:09.081Z,28.70
2019-02-24T18:37:13.760Z,29.33
2019-02-24T18:40:18.208Z,27.57
2019-02-24T18:43:22.827Z,30.00
2019-02-24T18:46:27.268Z,29.07
2019-02-24T18:49:31.666Z,28.13
2019-02-24T18:52:36.412Z,30.23
2019-02-24T18:55:40.913Z,30.47
2019-02-24T18:58:45.578Z,31.47
2019-02-24T19:01:50.056Z,32.77
2019-02-24T19:04:54.727Z,31.03
2019-02-24T19:07:59.358Z,33.47
2019-02-24T19:11:04.283Z,31.30
2019-02-24T19:14:09.113Z,31.17
2019-02-24T19:17:14.061Z,29.87
2019-02-24T19:20:23.765Z,29.40
2019-02-24T19:23:30.782Z,29.70
2019-02-24T19:26:35.664Z,29.30
2019-02-24T19:29:40.334Z,29.70
2019-02-24T19:32:45.110Z,31.53
2019-02-24T19:35:50.030Z,32.57
2019-02-24T19:38:54.768Z,31.70
2019-02-24T19:41:59.697Z,32.07
2019-02-24T19:45:04.765Z,31.67
2019-02-24T19:48:09.570Z,29.63
2019-02-24T19:51:14.537Z,30.87
2019-02-24T19:54:19.296Z,30.37
2019-02-24T19:57:24.078Z,29.27
2019-02-24T20:00:28.923Z,31.10
2019-02-24T20:03:33.801Z,32.33
2019-02-24T20:06:38.612Z,31.40
2019-02-24T20:09:46.115Z,31.90
2019-02-24T20:12:51.006Z,31.50
2019-02-24T20:15:55.970Z,31.67
2019-02-24T20:19:00.840Z,33.33
2019-02-24T20:22:08.054Z,33.13
2019-02-24T20:25:17.703Z,35.43
2019-02-24T20:28:22.320Z,35.63
2019-02-24T20:31:27.112Z,35.30
2019-02-24T20:34:31.960Z,37.13
2019-02-24T20:37:36.817Z,35.27
2019-02-24T20:40:41.476Z,34.50
2019-02-24T20:43:46.257Z,35.00
2019-02-24T20:46:50.865Z,34.43
2019-02-24T20:49:56.703Z,31.57
2019-02-24T20:53:01.287Z,35.50
2019-02-24T20:56:05.888Z,34.30
2019-02-24T20:59:10.511Z,36.87
2019-02-24T21:02:15.138Z,35.33
2019-02-24T21:05:19.908Z,35.87
2019-02-24T21:08:24.253Z,35.23
2019-02-24T21:11:28.818Z,35.13
2019-02-24T21:14:33.380Z,35.87
2019-02-24T21:17:37.898Z,36.90
2019-02-24T21:20:42.246Z,35.63
2019-02-24T21:23:46.634Z,38.90
2019-02-24T21:26:50.932Z,40.13
2019-02-24T21:29:55.275Z,35.97
2019-02-24T21:32:59.590Z,36.57
2019-02-24T21:36:04.136Z,36.53
2019-02-24T21:39:09.555Z,37.57
2019-02-24T21:42:13.885Z,39.53
2019-02-24T21:45:19.359Z,39.00
2019-02-24T21:48:23.722Z,39.43
2019-02-24T21:51:28.027Z,39.03
2019-02-24T21:54:32.396Z,37.47
2019-02-24T21:57:36.799Z,38.00
2019-02-24T22:00:41.320Z,39.07
2019-02-24T22:03:45.609Z,38.57
2019-02-24T22:06:49.903Z,37.20
2019-02-24T22:09:54.300Z,39.73
2019-02-24T22:12:59.464Z,40.40
2019-02-24T22:16:03.955Z,40.40
2019-02-24T22:19:08.237Z,41.20
2019-02-24T22:22:12.611Z,40.20
2019-02-24T22:25:17.041Z,39.80
2019-02-24T22:28:21.591Z,41.80
2019-02-24T22:31:25.979Z,41.00
2019-02-24T22:34:30.429Z,42.90
2019-02-24T22:37:34.712Z,42.20
2019-02-24T22:40:39.006Z,40.47
2019-02-24T22:43:43.318Z,40.40
2019-02-24T22:46:47.614Z,43.97
2019-02-24T22:49:51.929Z,47.90
2019-02-24T22:52:56.352Z,48.97
2019-02-24T22:56:00.667Z,44.23
2019-02-24T22:59:05.024Z,40.77
2019-02-24T23:02:11.248Z,44.87
2019-02-24T23:05:15.734Z,48.80
2019-02-24T23:08:20.066Z,48.73
2019-02-24T23:11:24.350Z,45.90
2019-02-24T23:14:30.940Z,47.70
2019-02-24T23:17:36.228Z,49.17
2019-02-24T23:20:41.339Z,45.30
2019-02-24T23:23:46.069Z,45.30
2019-02-24T23:26:51.189Z,43.83
2019-02-24T23:29:56.439Z,45.93
2019-02-24T23:33:02.348Z,43.67
2019-02-24T23:36:08.240Z,44.77
2019-02-24T23:39:16.796Z,45.00
2019-02-24T23:42:22.653Z,44.93
2019-02-24T23:45:28.369Z,45.30
2019-02-24T23:48:34.232Z,44.20
2019-02-24T23:51:40.111Z,43.73
2019-02-24T23:54:46.168Z,43.53
2019-02-24T23:57:52.039Z,39.77
